createdAt,value
2019-05-20T00:01:51.839Z,44.13
2019-05-20T00:06:56.153Z,43.28
2019-05-20T00:12:00.536Z,45.28
2019-05-20T00:17:04.945Z,43.38
2019-05-20T00:22:09.256Z,38.45
2019-05-20T00:27:13.638Z,40.23
2019-05-20T00:32:17.951Z,40.98
2019-05-20T00:37:22.355Z,39.48
2019-05-20T00:42:27.202Z,39.08
2019-05-20T00:47:31.506Z,40.58
2019-05-20T00:52:35.817Z,39.63
2019-05-20T00:57:40.138Z,40.17
2019-05-20T01:02:55.998Z,40.00
2019-05-20T01:07:50.572Z,37.65
2019-05-20T01:12:54.909Z,36.45
2019-05-20T01:17:59.208Z,36.25
2019-05-20T01:23:03.520Z,35.85
2019-05-20T01:28:07.830Z,35.90
2019-05-20T01:33:14.249Z,35.23
2019-05-20T01:38:18.429Z,33.90
2019-05-20T01:43:22.739Z,33.83
2019-05-20T01:48:27.125Z,35.20
2019-05-20T01:53:31.736Z,35.60
2019-05-20T01:58:39.287Z,35.80
2019-05-20T02:03:42.566Z,38.83
2019-05-20T02:08:46.967Z,37.40
2019-05-20T02:13:58.649Z,39.27
2019-05-20T02:19:03.029Z,35.23
2019-05-20T02:24:07.423Z,35.15
2019-05-20T02:29:11.738Z,33.95
2019-05-20T02:34:16.129Z,32.78
2019-05-20T02:39:20.518Z,34.67
2019-05-20T02:44:24.916Z,34.83
2019-05-20T02:49:29.235Z,35.88
2019-05-20T02:54:33.802Z,35.92
2019-05-20T02:59:38.189Z,35.98
2019-05-20T03:04:42.499Z,39.92
2019-05-20T03:09:46.843Z,39.73
2019-05-20T03:14:51.225Z,39.88
2019-05-20T03:19:55.538Z,41.02
2019-05-20T03:24:59.911Z,40.43
2019-05-20T03:30:05.886Z,41.45
2019-05-20T03:35:10.687Z,41.02
2019-05-20T03:40:15.146Z,40.48
2019-05-20T03:45:19.697Z,40.08
2019-05-20T03:50:23.998Z,40.23
2019-05-20T03:55:28.327Z,39.70
2019-05-20T04:00:45.065Z,40.15
2019-05-20T04:05:49.455Z,36.63
2019-05-20T04:10:53.843Z,32.73
2019-05-20T04:15:58.146Z,30.17
2019-05-20T04:21:02.562Z,31.73
2019-05-20T04:26:06.923Z,35.13
2019-05-20T04:31:11.249Z,39.23
2019-05-20T04:36:15.550Z,45.08
2019-05-20T04:41:19.951Z,44.65
2019-05-20T04:46:24.334Z,42.00
2019-05-20T04:51:28.651Z,43.73
2019-05-20T04:56:33.055Z,44.18
2019-05-20T05:01:37.381Z,40.38
2019-05-20T05:06:42.033Z,39.27
2019-05-20T05:11:46.471Z,37.95
2019-05-20T05:16:50.858Z,39.58
2019-05-20T05:21:55.181Z,40.03
2019-05-20T05:26:59.688Z,37.00
2019-05-20T05:32:04.214Z,37.10
2019-05-20T05:37:08.747Z,37.67
2019-05-20T05:42:13.195Z,38.38
2019-05-20T05:47:17.632Z,38.10
2019-05-20T05:52:22.992Z,37.75
2019-05-20T05:57:27.444Z,39.03
2019-05-20T06:02:31.766Z,37.90
2019-05-20T06:07:36.157Z,40.23
2019-05-20T06:12:40.565Z,37.85
2019-05-20T06:17:44.956Z,40.45
2019-05-20T06:22:49.347Z,44.75
2019-05-20T06:27:53.746Z,45.28
2019-05-20T06:32:58.056Z,52.15
2019-05-20T06:38:04.082Z,51.65
2019-05-20T06:43:08.476Z,49.90
2019-05-20T06:48:12.803Z,44.53
2019-05-20T06:53:17.131Z,42.98
2019-05-20T06:58:21.515Z,40.48
2019-05-20T07:03:26.115Z,40.88
2019-05-20T07:08:30.779Z,38.50
2019-05-20T07:13:35.336Z,36.98
2019-05-20T07:18:39.718Z,36.93
2019-05-20T07:23:44.112Z,34.20
2019-05-20T07:28:48.710Z,34.95
2019-05-20T07:33:53.022Z,40.40
2019-05-20T07:38:57.423Z,40.20
2019-05-20T07:44:02.204Z,38.20
2019-05-20T07:49:07.023Z,36.40
2019-05-20T07:54:12.016Z,36.10
2019-05-20T07:59:18.933Z,35.73
2019-05-20T08:04:23.592Z,30.95
2019-05-20T08:09:28.102Z,33.70
2019-05-20T08:14:32.589Z,38.48
2019-05-20T08:19:36.990Z,32.00
2019-05-20T08:24:41.300Z,27.22
2019-05-20T08:29:45.615Z,29.65
2019-05-20T08:34:49.931Z,30.15
2019-05-20T08:39:54.321Z,26.35
2019-05-20T08:44:58.663Z,30.27
2019-05-20T08:50:06.305Z,30.12
2019-05-20T08:55:10.605Z,25.70
2019-05-20T09:00:23.460Z,26.52
2019-05-20T09:05:28.767Z,25.37
2019-05-20T09:10:33.232Z,26.15
2019-05-20T09:15:37.627Z,28.20
2019-05-20T09:20:42.086Z,28.55
2019-05-20T09:25:46.457Z,26.33
2019-05-20T09:30:51.503Z,26.37
2019-05-20T09:35:55.885Z,23.87
2019-05-20T09:41:00.265Z,23.22
2019-05-20T09:46:07.927Z,23.32
2019-05-20T09:51:11.065Z,22.82
2019-05-20T09:56:15.375Z,22.10
2019-05-20T10:01:19.697Z,19.37
2019-05-20T10:06:24.096Z,18.85
2019-05-20T10:11:28.402Z,17.15
2019-05-20T10:16:32.713Z,17.48
2019-05-20T10:21:37.112Z,17.65
2019-05-20T10:26:41.526Z,17.07
2019-05-20T10:31:45.919Z,16.07
2019-05-20T10:36:50.299Z,16.35
2019-05-20T10:41:54.610Z,15.80
2019-05-20T10:46:58.992Z,15.40
2019-05-20T10:52:03.361Z,16.02
2019-05-20T10:57:07.680Z,16.52
2019-05-20T11:02:12.083Z,15.08
2019-05-20T11:07:16.467Z,13.38
2019-05-20T11:12:20.916Z,13.58
2019-05-20T11:17:25.196Z,12.35
2019-05-20T11:22:29.523Z,12.45
2019-05-20T11:27:33.905Z,11.68
2019-05-20T11:32:38.428Z,13.25
2019-05-20T11:37:43.097Z,14.35
2019-05-20T11:42:47.405Z,13.25
2019-05-20T11:47:51.863Z,12.47
2019-05-20T11:52:56.263Z,13.55
2019-05-20T11:58:14.566Z,13.78
2019-05-20T12:03:06.753Z,14.28
2019-05-20T12:08:11.312Z,14.87
2019-05-20T12:13:15.711Z,16.57
2019-05-20T12:18:20.091Z,17.62
2019-05-20T12:23:24.403Z,19.15
2019-05-20T12:28:28.786Z,18.10
2019-05-20T12:33:33.095Z,18.42
2019-05-20T12:38:37.503Z,17.67
2019-05-20T12:43:44.939Z,16.42
2019-05-20T12:48:48.693Z,17.52
2019-05-20T12:53:53.050Z,16.27
2019-05-20T12:58:57.349Z,15.58
2019-05-20T13:04:01.738Z,15.60
2019-05-20T13:09:07.293Z,16.37
2019-05-20T13:14:11.669Z,16.25
2019-05-20T13:19:15.982Z,16.37
2019-05-20T13:24:20.359Z,16.30
2019-05-20T13:29:24.979Z,16.27
2019-05-20T13:34:29.634Z,16.50
2019-05-20T13:39:34.378Z,17.95
2019-05-20T13:44:38.841Z,18.37
2019-05-20T13:49:43.235Z,19.12
2019-05-20T13:54:47.628Z,19.02
2019-05-20T13:59:51.942Z,18.12
2019-05-20T14:04:56.350Z,20.25
2019-05-20T14:10:00.666Z,21.33
2019-05-20T14:15:08.660Z,21.95
2019-05-20T14:20:13.306Z,21.93
2019-05-20T14:25:17.756Z,23.55
2019-05-20T14:30:22.209Z,24.30
2019-05-20T14:35:26.546Z,24.87
2019-05-20T14:40:31.209Z,23.65
2019-05-20T14:45:36.198Z,24.43
2019-05-20T14:50:40.576Z,26.20
2019-05-20T14:55:45.249Z,24.43
2019-05-20T15:00:49.672Z,23.90
2019-05-20T15:05:54.233Z,23.90
2019-05-20T15:10:58.531Z,23.30
2019-05-20T15:16:02.913Z,21.55
2019-05-20T15:21:07.291Z,21.20
2019-05-20T15:26:11.683Z,21.25
2019-05-20T15:31:15.995Z,23.47
2019-05-20T15:36:20.378Z,21.93
2019-05-20T15:41:25.058Z,22.35
2019-05-20T15:46:30.191Z,21.57
2019-05-20T15:51:34.596Z,22.52
2019-05-20T15:56:38.936Z,23.20
2019-05-20T16:01:43.332Z,21.77
2019-05-20T16:06:47.900Z,21.15
2019-05-20T16:11:52.210Z,22.93
2019-05-20T16:16:56.516Z,22.40
2019-05-20T16:22:00.922Z,19.60
2019-05-20T16:27:05.217Z,16.12
2019-05-20T16:32:09.614Z,17.50
2019-05-20T16:37:14.264Z,17.57
2019-05-20T16:42:18.953Z,19.40
2019-05-20T16:47:24.236Z,20.30
2019-05-20T16:52:28.674Z,21.62
2019-05-20T16:57:33.052Z,22.70
2019-05-20T17:02:37.665Z,24.50
2019-05-20T17:07:42.310Z,25.60
2019-05-20T17:12:46.711Z,26.00
2019-05-20T17:17:51.112Z,25.75
2019-05-20T17:22:55.526Z,26.57
2019-05-20T17:27:59.823Z,25.55
2019-05-20T17:33:04.133Z,26.05
2019-05-20T17:38:08.446Z,26.48
2019-05-20T17:43:12.834Z,27.42
2019-05-20T17:48:17.317Z,29.50
2019-05-20T17:53:21.632Z,29.05
2019-05-20T17:58:26.014Z,28.62
2019-05-20T18:03:30.400Z,28.83
2019-05-20T18:08:36.429Z,26.25
2019-05-20T18:13:40.742Z,26.35
2019-05-20T18:18:45.133Z,25.27
2019-05-20T18:23:49.775Z,23.27
2019-05-20T18:28:54.103Z,24.47
2019-05-20T18:33:58.481Z,21.60
2019-05-20T18:39:03.418Z,20.17
2019-05-20T18:44:07.806Z,21.00
2019-05-20T18:49:12.819Z,20.57
2019-05-20T18:54:17.202Z,19.30
2019-05-20T18:59:21.586Z,17.85
2019-05-20T19:04:27.118Z,18.48
2019-05-20T19:09:31.495Z,19.10
2019-05-20T19:14:35.804Z,18.65
2019-05-20T19:19:40.197Z,19.27
2019-05-20T19:24:44.563Z,17.98
2019-05-20T19:29:49.022Z,18.25
2019-05-20T19:34:53.320Z,18.05
2019-05-20T19:39:57.632Z,16.48
2019-05-20T19:45:01.929Z,17.35
2019-05-20T19:50:07.952Z,18.73
2019-05-20T19:55:13.013Z,19.65
2019-05-20T20:00:18.604Z,22.32
2019-05-20T20:05:23.043Z,24.23
2019-05-20T20:10:27.418Z,26.02
2019-05-20T20:15:31.730Z,27.20
2019-05-20T20:20:36.035Z,24.60
2019-05-20T20:25:40.373Z,22.85
2019-05-20T20:30:44.787Z,22.58
2019-05-20T20:35:49.178Z,21.45
2019-05-20T20:40:53.491Z,21.48
2019-05-20T20:45:57.993Z,18.80
2019-05-20T20:51:03.669Z,17.65
2019-05-20T20:56:22.695Z,18.52
2019-05-20T21:01:14.101Z,18.98
2019-05-20T21:06:18.425Z,20.25
2019-05-20T21:16:28.859Z,23.02
2019-05-20T21:21:33.166Z,22.30
2019-05-20T21:26:37.554Z,22.45
2019-05-20T21:31:41.864Z,25.15
2019-05-20T21:36:48.114Z,24.07
2019-05-20T21:42:02.001Z,24.57
2019-05-20T21:47:07.944Z,25.10
2019-05-20T21:52:16.899Z,23.67
2019-05-20T21:57:24.508Z,22.80
2019-05-20T22:02:45.018Z,23.00
2019-05-20T22:07:39.943Z,25.57
2019-05-20T22:12:46.063Z,26.97
2019-05-20T22:17:50.316Z,23.55
2019-05-20T22:23:12.848Z,22.98
2019-05-20T22:28:17.158Z,23.02
2019-05-20T22:33:21.494Z,24.98
2019-05-20T22:38:26.096Z,24.75
2019-05-20T22:43:30.483Z,25.27
2019-05-20T22:48:34.863Z,23.25
2019-05-20T22:53:39.410Z,21.10
2019-05-20T22:58:43.797Z,20.12
2019-05-20T23:03:56.027Z,21.25
2019-05-20T23:08:54.303Z,22.25
2019-05-20T23:13:58.862Z,23.22
2019-05-20T23:19:03.257Z,23.27
2019-05-20T23:24:07.643Z,22.75
2019-05-20T23:29:12.598Z,21.02
2019-05-20T23:34:16.971Z,21.27
2019-05-20T23:39:21.285Z,19.32
2019-05-20T23:44:25.660Z,21.05
2019-05-20T23:49:30.048Z,19.23
2019-05-20T23:54:35.263Z,19.00
2019-05-20T23:59:39.651Z,18.52
